Cold Creek, Nevada
Current Conditions -  °F | °C
As of 12:56 AM on Saturday 20 Dec 2014 (Local Time) from KHND Reporting Station
Clear Clear  
Wind Chill: 42°   Ceiling: Unl
Heat Index: 42°   Visibility: 10mi
Dew Point: 38°   Wind: 3mph
Humidity: 85%   Direction: 130°SE
Pressure: 30.19"   Gusts: NA
Location:  35.8437°N, 115.134°W
Report Text: KHND 200856Z AUTO 13003KT 10SM CLR 06/03 A3019 RMK AO2 SLP228 T00560033 55006 TSNO
Loading
Personal Weather Stations






























Interactive Weather Map New forecast layout! Learn more

10-Day Weather Forecast

Advertisements
Track Severe Weather on mobile